createdAt,value
2022-09-14T00:01:27.826Z,1.83
2022-09-14T00:03:57.792Z,1.20
2022-09-14T00:06:26.122Z,1.25
2022-09-14T00:08:55.202Z,1.02
2022-09-14T00:11:25.059Z,1.45
2022-09-14T00:13:55.095Z,1.40
2022-09-14T00:16:24.946Z,1.30
2022-09-14T00:18:54.446Z,1.40
2022-09-14T00:21:22.746Z,1.27
2022-09-14T00:23:50.320Z,1.10
2022-09-14T00:26:22.403Z,1.08
2022-09-14T00:28:51.534Z,1.42
2022-09-14T00:31:21.728Z,1.77
2022-09-14T00:33:51.045Z,1.40
2022-09-14T00:36:21.085Z,1.17
2022-09-14T00:38:49.723Z,1.08
2022-09-14T00:41:21.605Z,1.00
2022-09-14T00:43:58.938Z,1.60
2022-09-14T00:46:29.635Z,1.50
2022-09-14T00:48:59.894Z,1.80
2022-09-14T00:51:30.381Z,1.58
2022-09-14T00:53:58.300Z,1.92
2022-09-14T00:56:26.829Z,1.70
2022-09-14T00:58:56.817Z,2.60
2022-09-14T01:01:25.119Z,2.60
2022-09-14T01:03:54.185Z,2.40
2022-09-14T01:06:28.910Z,2.35
2022-09-14T01:09:13.210Z,2.08
2022-09-14T01:11:51.759Z,1.52
2022-09-14T01:14:27.043Z,1.35
2022-09-14T01:17:01.978Z,1.40
2022-09-14T01:19:47.524Z,1.10
2022-09-14T01:22:22.019Z,1.73
2022-09-14T01:24:53.373Z,1.50
2022-09-14T01:27:30.147Z,1.50
2022-09-14T01:30:05.250Z,1.52
2022-09-14T01:32:40.047Z,1.08
2022-09-14T01:35:16.080Z,1.38
2022-09-14T01:37:47.674Z,1.77
2022-09-14T01:40:20.072Z,1.40
2022-09-14T01:42:52.784Z,1.23
2022-09-14T01:45:23.496Z,1.30
2022-09-14T01:47:55.045Z,1.33
2022-09-14T01:50:27.829Z,1.58
2022-09-14T01:53:00.327Z,1.80
2022-09-14T01:55:31.354Z,1.20
2022-09-14T01:58:05.642Z,1.20
2022-09-14T02:00:34.529Z,2.10
2022-09-14T02:03:08.706Z,1.70
2022-09-14T02:05:41.420Z,1.52
2022-09-14T02:08:09.637Z,1.40
2022-09-14T02:10:37.487Z,1.75
2022-09-14T02:13:07.057Z,1.63
2022-09-14T02:15:36.909Z,1.45
2022-09-14T02:18:05.156Z,4.47
2022-09-14T02:20:38.966Z,1.63
2022-09-14T02:23:06.757Z,1.50
2022-09-14T02:25:35.151Z,1.52
2022-09-14T02:28:03.174Z,1.52
2022-09-14T02:30:37.992Z,1.40
2022-09-14T02:33:12.260Z,1.50
2022-09-14T02:35:46.685Z,1.50
2022-09-14T02:38:23.026Z,1.70
2022-09-14T02:40:56.115Z,1.80
2022-09-14T02:43:33.773Z,2.03
2022-09-14T02:46:09.548Z,1.55
2022-09-14T02:48:44.654Z,1.73
2022-09-14T02:51:20.012Z,1.65
2022-09-14T02:53:53.788Z,1.48
2022-09-14T02:56:22.259Z,1.60
2022-09-14T02:58:49.987Z,1.90
2022-09-14T03:01:24.731Z,1.95
2022-09-14T03:03:52.492Z,1.55
2022-09-14T03:06:20.488Z,1.40
2022-09-14T03:08:49.286Z,1.85
2022-09-14T03:11:17.184Z,1.20
2022-09-14T03:13:44.896Z,1.50
2022-09-14T03:16:14.553Z,1.42
2022-09-14T03:18:44.006Z,1.30
2022-09-14T03:21:13.702Z,1.60
2022-09-14T03:23:42.820Z,1.80
2022-09-14T03:26:12.488Z,1.58
2022-09-14T03:28:40.242Z,1.50
2022-09-14T03:31:09.954Z,1.63
2022-09-14T03:33:38.314Z,1.98
2022-09-14T03:36:13.493Z,2.13
2022-09-14T03:38:44.482Z,1.55
2022-09-14T03:41:13.276Z,1.55
2022-09-14T03:43:41.186Z,1.50
2022-09-14T03:46:11.134Z,2.08
2022-09-14T03:48:39.466Z,1.75
2022-09-14T03:51:08.603Z,2.67
2022-09-14T03:53:37.991Z,1.88
2022-09-14T03:56:07.966Z,2.30
2022-09-14T03:58:35.662Z,2.00
2022-09-14T04:01:07.096Z,2.28
2022-09-14T04:03:35.188Z,2.10
2022-09-14T04:06:05.457Z,2.22
2022-09-14T04:08:33.996Z,1.98
2022-09-14T04:11:07.968Z,2.25
2022-09-14T04:13:35.732Z,1.67
2022-09-14T04:16:04.202Z,2.40
2022-09-14T04:18:32.146Z,2.22
2022-09-14T04:21:05.726Z,2.20
2022-09-14T04:23:42.303Z,2.13
2022-09-14T04:26:27.408Z,2.50
2022-09-14T04:28:55.792Z,2.10
2022-09-14T04:31:24.022Z,1.80
2022-09-14T04:33:53.167Z,2.15
2022-09-14T04:36:22.494Z,1.90
2022-09-14T04:38:54.146Z,2.35
2022-09-14T04:41:23.059Z,2.60
2022-09-14T04:43:53.048Z,2.67
2022-09-14T04:46:22.506Z,2.92
2022-09-14T04:48:51.322Z,3.10
2022-09-14T04:51:20.778Z,2.65
2022-09-14T04:53:50.356Z,3.05
2022-09-14T04:56:19.678Z,3.00
2022-09-14T04:58:51.693Z,2.20
2022-09-14T05:01:23.186Z,2.45
2022-09-14T05:03:51.958Z,2.13
2022-09-14T05:06:21.386Z,2.15
2022-09-14T05:08:49.940Z,2.35
2022-09-14T05:11:19.520Z,1.85
2022-09-14T05:13:50.017Z,1.80
2022-09-14T05:16:19.953Z,2.42
2022-09-14T05:18:49.711Z,1.52
2022-09-14T05:21:18.654Z,1.75
2022-09-14T05:23:46.785Z,3.00
2022-09-14T05:26:15.024Z,1.50
2022-09-14T05:28:42.845Z,1.65
2022-09-14T05:31:13.202Z,1.77
2022-09-14T05:33:40.976Z,2.17
2022-09-14T05:36:10.493Z,2.47
2022-09-14T05:38:39.715Z,1.98
2022-09-14T05:41:08.988Z,2.10
2022-09-14T05:43:36.735Z,1.95
2022-09-14T05:46:05.691Z,2.22
2022-09-14T05:48:34.437Z,1.92
2022-09-14T05:51:03.294Z,2.83
2022-09-14T05:53:32.445Z,2.10
2022-09-14T05:56:01.120Z,2.13
2022-09-14T05:58:29.019Z,2.10
2022-09-14T06:00:57.077Z,1.92
2022-09-14T06:03:24.937Z,2.30
2022-09-14T06:05:58.605Z,2.47
2022-09-14T06:08:26.304Z,2.15
2022-09-14T06:10:55.169Z,2.38
2022-09-14T06:13:23.784Z,1.90
2022-09-14T06:15:51.280Z,2.95
2022-09-14T06:18:18.850Z,2.28
2022-09-14T06:20:53.575Z,2.13
2022-09-14T06:23:21.211Z,1.90
2022-09-14T06:25:48.870Z,2.55
2022-09-14T06:28:18.019Z,1.90
2022-09-14T06:30:45.673Z,2.35
2022-09-14T06:33:13.287Z,2.20
2022-09-14T06:35:42.021Z,2.13
2022-09-14T06:38:10.078Z,2.10
2022-09-14T06:40:37.796Z,2.58
2022-09-14T06:43:05.418Z,2.20
2022-09-14T06:45:36.659Z,2.25
2022-09-14T06:48:04.334Z,1.90
2022-09-14T06:50:31.865Z,2.08
2022-09-14T06:53:01.382Z,2.75
2022-09-14T06:55:29.930Z,2.13
2022-09-14T06:57:57.620Z,2.25
2022-09-14T07:00:25.376Z,2.30
2022-09-14T07:02:55.929Z,2.47
2022-09-14T07:05:23.641Z,2.50
2022-09-14T07:07:52.357Z,3.38
2022-09-14T07:10:20.046Z,2.85
2022-09-14T07:12:48.073Z,4.10
2022-09-14T07:15:15.970Z,1.98
2022-09-14T07:17:47.138Z,5.25
2022-09-14T07:20:16.493Z,3.30
2022-09-14T07:22:44.126Z,5.82
2022-09-14T07:25:11.966Z,2.47
2022-09-14T07:27:39.718Z,2.40
2022-09-14T07:30:08.928Z,2.03
2022-09-14T07:32:36.594Z,2.55
2022-09-14T07:35:05.142Z,2.13
2022-09-14T07:37:34.337Z,2.10
2022-09-14T07:40:02.329Z,2.17
2022-09-14T07:42:30.107Z,2.88
2022-09-14T07:44:57.703Z,2.83
2022-09-14T07:47:25.601Z,1.95
2022-09-14T07:49:53.235Z,2.40
2022-09-14T07:52:21.110Z,5.72
2022-09-14T07:54:50.072Z,1.95
2022-09-14T07:57:23.861Z,2.80
2022-09-14T08:00:03.497Z,2.30
2022-09-14T08:02:41.459Z,2.78
2022-09-14T08:05:11.317Z,2.33
2022-09-14T08:07:39.269Z,3.38
2022-09-14T08:10:09.565Z,5.93
2022-09-14T08:12:37.706Z,2.58
2022-09-14T08:15:14.145Z,2.63
2022-09-14T08:17:41.774Z,1.95
2022-09-14T08:20:10.181Z,1.98
2022-09-14T08:22:37.836Z,1.60
2022-09-14T08:25:06.517Z,1.90
2022-09-14T08:27:35.438Z,1.70
2022-09-14T08:30:03.577Z,1.13
2022-09-14T08:32:31.242Z,1.48
2022-09-14T08:34:58.823Z,1.58
2022-09-14T08:37:26.485Z,1.58
2022-09-14T08:39:54.077Z,1.48
2022-09-14T08:42:25.062Z,1.67
2022-09-14T08:44:56.924Z,1.67
2022-09-14T08:47:28.794Z,1.30
2022-09-14T08:50:02.509Z,1.50
2022-09-14T08:52:34.165Z,1.20
2022-09-14T08:55:03.668Z,1.38
2022-09-14T08:57:39.836Z,1.40
2022-09-14T09:00:13.355Z,0.98
2022-09-14T09:03:04.941Z,1.67
2022-09-14T09:05:38.134Z,1.13
2022-09-14T09:08:17.341Z,1.30
2022-09-14T09:10:45.861Z,1.20
2022-09-14T09:13:18.854Z,1.00
2022-09-14T09:15:50.793Z,2.70
2022-09-14T09:18:23.390Z,3.42
2022-09-14T09:20:55.055Z,1.90
2022-09-14T09:23:24.594Z,1.58
2022-09-14T09:25:57.309Z,1.00
2022-09-14T09:28:27.148Z,1.10
2022-09-14T09:30:59.212Z,1.10
2022-09-14T09:33:40.149Z,1.13
2022-09-14T09:36:16.471Z,1.30
2022-09-14T09:38:45.380Z,2.47
2022-09-14T09:41:17.764Z,1.35
2022-09-14T09:44:00.942Z,1.55
2022-09-14T09:46:31.939Z,1.15
2022-09-14T09:49:00.677Z,1.00
2022-09-14T09:51:30.156Z,1.08
2022-09-14T09:54:01.453Z,2.35
2022-09-14T09:56:32.475Z,1.00
2022-09-14T09:59:00.347Z,0.90
2022-09-14T10:01:31.987Z,1.10
2022-09-14T10:04:05.988Z,1.02
2022-09-14T10:06:41.872Z,1.58
2022-09-14T10:09:15.337Z,1.38
2022-09-14T10:11:43.103Z,1.20
2022-09-14T10:14:23.292Z,1.38
2022-09-14T10:16:52.756Z,1.42
2022-09-14T10:19:24.519Z,1.00
2022-09-14T10:22:04.818Z,1.25
2022-09-14T10:24:35.537Z,1.55
2022-09-14T10:27:03.755Z,1.20
2022-09-14T10:29:36.401Z,1.30
2022-09-14T10:32:15.784Z,1.45
2022-09-14T10:34:43.462Z,1.08
2022-09-14T10:37:25.536Z,1.50
2022-09-14T10:40:03.518Z,1.05
2022-09-14T10:42:39.078Z,1.33
2022-09-14T10:45:18.504Z,1.15
2022-09-14T10:48:10.797Z,0.90
2022-09-14T10:50:55.535Z,1.15
2022-09-14T10:53:34.875Z,1.20
2022-09-14T10:56:05.898Z,1.25
2022-09-14T10:58:48.502Z,0.88
2022-09-14T11:01:32.134Z,1.30
2022-09-14T11:04:15.688Z,1.17
2022-09-14T11:06:52.020Z,0.90
2022-09-14T11:09:24.649Z,0.93
2022-09-14T11:12:04.593Z,1.85
2022-09-14T11:14:43.634Z,1.38
2022-09-14T11:17:37.369Z,1.17
2022-09-14T11:20:16.722Z,1.63
2022-09-14T11:22:53.188Z,1.35
2022-09-14T11:25:24.797Z,1.77
2022-09-14T11:27:56.402Z,1.40
2022-09-14T11:30:26.671Z,1.00
2022-09-14T11:32:58.814Z,1.40
2022-09-14T11:35:32.942Z,1.25
2022-09-14T11:38:03.107Z,1.30
2022-09-14T11:40:35.942Z,1.30
2022-09-14T11:43:11.321Z,1.15
2022-09-14T11:45:44.385Z,1.35
2022-09-14T11:48:41.830Z,2.13
2022-09-14T11:51:15.243Z,1.42
2022-09-14T11:53:44.640Z,1.80
2022-09-14T11:56:26.331Z,1.33
2022-09-14T11:58:55.783Z,1.30
2022-09-14T12:01:30.930Z,1.30
2022-09-14T12:04:19.717Z,1.98
2022-09-14T12:06:51.940Z,1.73
2022-09-14T12:09:39.557Z,1.55
2022-09-14T12:12:46.190Z,1.70
2022-09-14T12:15:22.833Z,1.58
2022-09-14T12:17:51.731Z,1.33
2022-09-14T12:20:40.434Z,1.17
2022-09-14T12:23:20.682Z,2.17
2022-09-14T12:26:36.087Z,1.55
2022-09-14T12:29:08.797Z,1.10
2022-09-14T12:32:01.074Z,1.30
2022-09-14T12:34:31.978Z,1.00
2022-09-14T12:37:16.420Z,1.55
2022-09-14T12:42:36.331Z,1.55
2022-09-14T12:45:37.353Z,1.50
2022-09-14T12:48:05.152Z,1.38
2022-09-14T12:50:35.931Z,1.67
2022-09-14T12:53:24.506Z,1.70
2022-09-14T12:56:01.717Z,1.23
2022-09-14T12:58:42.231Z,1.50
2022-09-14T13:01:26.390Z,1.55
2022-09-14T13:03:56.828Z,1.95
2022-09-14T13:06:27.743Z,1.30
2022-09-14T13:08:58.908Z,1.35
2022-09-14T13:11:32.586Z,1.55
2022-09-14T13:14:03.042Z,1.38
2022-09-14T13:16:39.167Z,1.48
2022-09-14T13:19:19.380Z,1.58
2022-09-14T13:21:48.170Z,1.33
2022-09-14T13:24:25.668Z,1.45
2022-09-14T13:26:55.157Z,1.17
2022-09-14T13:29:26.577Z,1.65
2022-09-14T13:31:56.177Z,1.17
2022-09-14T13:34:28.354Z,1.50
2022-09-14T13:36:57.636Z,1.23
2022-09-14T13:39:30.080Z,1.60
2022-09-14T13:41:58.497Z,1.52
2022-09-14T13:44:32.103Z,1.15
2022-09-14T13:47:06.576Z,1.10
2022-09-14T13:49:36.468Z,1.23
2022-09-14T13:52:43.117Z,1.20
2022-09-14T13:55:20.310Z,1.20
2022-09-14T13:58:12.241Z,1.27
2022-09-14T14:00:51.720Z,1.20
2022-09-14T14:03:27.415Z,1.20
2022-09-14T14:05:55.531Z,1.58
2022-09-14T14:08:31.221Z,1.52
2022-09-14T14:10:59.982Z,1.20
2022-09-14T14:13:28.527Z,1.55
2022-09-14T14:16:14.710Z,1.30
2022-09-14T14:18:43.804Z,1.25
2022-09-14T14:21:17.670Z,1.42
2022-09-14T14:24:02.811Z,1.38
2022-09-14T14:26:32.861Z,1.20
2022-09-14T14:29:08.518Z,1.25
2022-09-14T14:31:37.593Z,1.02
2022-09-14T14:34:17.528Z,1.27
2022-09-14T14:36:45.531Z,1.10
2022-09-14T14:39:13.151Z,1.20
2022-09-14T14:41:40.707Z,0.82
2022-09-14T14:44:13.141Z,0.70
2022-09-14T14:46:44.180Z,0.93
2022-09-14T14:49:13.185Z,1.00
2022-09-14T14:51:41.061Z,0.80
2022-09-14T14:54:10.057Z,1.15
2022-09-14T14:56:38.225Z,0.60
2022-09-14T14:59:16.564Z,0.60
2022-09-14T15:01:46.086Z,0.80
2022-09-14T15:04:13.794Z,1.38
2022-09-14T15:06:41.363Z,0.80
2022-09-14T15:09:14.700Z,0.63
2022-09-14T15:11:42.578Z,0.70
2022-09-14T15:14:12.496Z,1.10
2022-09-14T15:16:40.268Z,0.70
2022-09-14T15:19:10.259Z,1.88
2022-09-14T15:21:38.060Z,0.80
2022-09-14T15:24:06.458Z,0.50
2022-09-14T15:26:34.420Z,0.85
2022-09-14T15:29:02.578Z,0.60
2022-09-14T15:31:30.361Z,0.90
2022-09-14T15:33:59.482Z,0.60
2022-09-14T15:36:39.430Z,0.60
2022-09-14T15:39:08.195Z,0.60
2022-09-14T15:41:35.745Z,0.63
2022-09-14T15:44:04.598Z,1.00
2022-09-14T15:46:32.593Z,0.80
2022-09-14T15:49:00.467Z,0.63
2022-09-14T15:51:28.229Z,0.90
2022-09-14T15:53:58.417Z,0.70
2022-09-14T15:56:26.065Z,0.60
2022-09-14T15:58:53.851Z,0.90
2022-09-14T16:01:22.154Z,0.60
2022-09-14T16:03:49.891Z,0.65
2022-09-14T16:06:17.459Z,0.85
2022-09-14T16:08:51.912Z,0.80
2022-09-14T16:11:27.096Z,0.95
2022-09-14T16:13:57.929Z,0.88
2022-09-14T16:16:25.685Z,1.13
2022-09-14T16:18:53.617Z,0.80
2022-09-14T16:21:23.523Z,0.73
2022-09-14T16:23:56.835Z,0.77
2022-09-14T16:26:28.451Z,2.28
2022-09-14T16:28:56.923Z,1.00
2022-09-14T16:31:28.349Z,1.10
2022-09-14T16:33:58.114Z,1.08
2022-09-14T16:36:28.139Z,3.00
2022-09-14T16:38:58.208Z,0.80
2022-09-14T16:41:27.903Z,1.20
2022-09-14T16:43:56.950Z,0.95
2022-09-14T16:46:25.609Z,0.82
2022-09-14T16:48:53.666Z,0.80
2022-09-14T16:51:22.951Z,0.95
2022-09-14T16:53:52.102Z,0.88
2022-09-14T16:56:21.230Z,1.10
2022-09-14T16:58:52.017Z,0.70
2022-09-14T17:01:21.107Z,0.80
2022-09-14T17:03:51.461Z,0.90
2022-09-14T17:06:21.077Z,0.60
2022-09-14T17:08:49.429Z,0.50
2022-09-14T17:11:17.665Z,0.90
2022-09-14T17:13:46.259Z,0.95
2022-09-14T17:16:18.634Z,1.05
2022-09-14T17:18:48.783Z,1.00
2022-09-14T17:21:18.749Z,0.98
2022-09-14T17:23:47.256Z,0.80
2022-09-14T17:26:17.961Z,1.50
2022-09-14T17:28:47.263Z,0.98
2022-09-14T17:31:17.831Z,0.93
2022-09-14T17:33:47.787Z,0.93
2022-09-14T17:36:16.767Z,1.08
2022-09-14T17:38:45.459Z,0.75
2022-09-14T17:41:15.144Z,0.88
2022-09-14T17:43:43.645Z,1.30
2022-09-14T17:46:14.146Z,1.10
2022-09-14T17:48:43.761Z,1.00
2022-09-14T17:51:14.175Z,1.10
2022-09-14T17:53:43.593Z,0.88
2022-09-14T17:56:14.117Z,0.88
2022-09-14T17:58:43.652Z,0.80
2022-09-14T18:01:13.586Z,0.70
2022-09-14T18:03:45.305Z,0.98
2022-09-14T18:06:13.616Z,0.98
2022-09-14T18:08:41.901Z,1.30
2022-09-14T18:11:11.565Z,1.02
2022-09-14T18:13:41.312Z,0.95
2022-09-14T18:16:09.228Z,0.80
2022-09-14T18:18:36.768Z,1.17
2022-09-14T18:21:09.293Z,1.00
2022-09-14T18:23:37.472Z,0.98
2022-09-14T18:26:06.162Z,0.90
2022-09-14T18:28:34.605Z,1.13
2022-09-14T18:31:03.246Z,0.82
2022-09-14T18:33:31.382Z,1.10
2022-09-14T18:35:58.976Z,1.17
2022-09-14T18:38:28.817Z,1.50
2022-09-14T18:40:56.500Z,1.42
2022-09-14T18:43:24.199Z,1.10
2022-09-14T18:45:53.907Z,1.27
2022-09-14T18:48:21.586Z,1.08
2022-09-14T18:50:49.207Z,1.83
2022-09-14T18:53:16.732Z,1.60
2022-09-14T18:55:46.251Z,1.50
2022-09-14T18:58:13.907Z,1.35
2022-09-14T19:00:45.819Z,1.50
2022-09-14T19:03:13.630Z,1.17
2022-09-14T19:05:42.933Z,1.20
2022-09-14T19:08:13.494Z,1.55
2022-09-14T19:10:41.316Z,1.70
2022-09-14T19:13:10.526Z,1.60
2022-09-14T19:15:40.722Z,1.50
2022-09-14T19:18:09.027Z,1.40
2022-09-14T19:21:04.928Z,1.85
2022-09-14T19:23:27.668Z,1.25
2022-09-14T19:25:55.133Z,1.30
2022-09-14T19:28:24.147Z,1.98
2022-09-14T19:30:51.812Z,1.75
2022-09-14T19:33:19.371Z,1.33
2022-09-14T19:35:46.932Z,1.73
2022-09-14T19:38:14.481Z,2.00
2022-09-14T19:40:51.756Z,1.88
2022-09-14T19:43:20.460Z,2.60
2022-09-14T19:45:49.313Z,2.15
2022-09-14T19:48:16.842Z,2.15
2022-09-14T19:50:46.052Z,2.55
2022-09-14T19:53:13.750Z,2.20
2022-09-14T19:55:41.244Z,2.30
2022-09-14T19:58:08.928Z,2.55
2022-09-14T20:00:36.467Z,1.98
2022-09-14T20:03:05.682Z,2.13
2022-09-14T20:05:33.374Z,2.78
2022-09-14T20:08:00.973Z,2.17
2022-09-14T20:10:28.828Z,2.38
2022-09-14T20:12:56.582Z,2.10
2022-09-14T20:15:24.142Z,1.70
2022-09-14T20:17:54.823Z,2.50
2022-09-14T20:20:23.849Z,1.70
2022-09-14T20:22:51.816Z,2.00
2022-09-14T20:25:19.323Z,2.60
2022-09-14T20:27:48.192Z,3.97
2022-09-14T20:30:15.906Z,3.70
2022-09-14T20:32:43.493Z,2.00
2022-09-14T20:35:11.096Z,2.72
2022-09-14T20:37:39.956Z,2.95
2022-09-14T20:40:09.735Z,2.72
2022-09-14T20:42:37.311Z,2.65
2022-09-14T20:45:05.386Z,2.50
2022-09-14T20:47:32.904Z,2.08
2022-09-14T20:50:00.426Z,2.60
2022-09-14T20:52:28.054Z,2.10
2022-09-14T20:54:57.233Z,2.70
2022-09-14T20:57:24.849Z,2.15
2022-09-14T20:59:52.332Z,1.50
2022-09-14T21:02:19.981Z,1.67
2022-09-14T21:04:47.947Z,1.98
2022-09-14T21:07:15.513Z,1.50
2022-09-14T21:09:43.146Z,1.85
2022-09-14T21:12:15.021Z,1.77
2022-09-14T21:14:44.973Z,1.95
2022-09-14T21:17:13.015Z,1.92
2022-09-14T21:19:40.683Z,2.20
2022-09-14T21:22:08.222Z,2.40
2022-09-14T21:24:36.172Z,1.50
2022-09-14T21:27:04.678Z,2.10
2022-09-14T21:29:34.399Z,2.40
2022-09-14T21:32:08.238Z,2.33
2022-09-14T21:34:36.487Z,2.03
2022-09-14T21:37:04.178Z,2.50
2022-09-14T21:39:31.745Z,1.95
2022-09-14T21:42:00.377Z,1.85
2022-09-14T21:44:31.442Z,2.05
2022-09-14T21:47:01.325Z,1.98
2022-09-14T21:49:29.447Z,1.70
2022-09-14T21:51:57.122Z,2.05
2022-09-14T21:54:24.850Z,1.70
2022-09-14T21:56:53.670Z,1.73
2022-09-14T21:59:23.037Z,1.98
2022-09-14T22:01:50.838Z,2.15
2022-09-14T22:04:22.331Z,1.98
2022-09-14T22:06:51.407Z,1.98
2022-09-14T22:09:21.358Z,2.70
2022-09-14T22:11:49.001Z,3.50
2022-09-14T22:14:19.149Z,3.72
2022-09-14T22:16:48.817Z,3.70
2022-09-14T22:19:18.889Z,4.90
2022-09-14T22:21:48.695Z,4.10
2022-09-14T22:24:19.616Z,3.92
2022-09-14T22:26:47.509Z,3.30
2022-09-14T22:29:15.751Z,3.25
2022-09-14T22:31:44.515Z,3.20
2022-09-14T22:34:12.506Z,3.47
2022-09-14T22:36:40.277Z,2.50
2022-09-14T22:39:10.494Z,2.72
2022-09-14T22:41:38.895Z,2.20
2022-09-14T22:44:07.443Z,2.28
2022-09-14T22:46:36.166Z,1.90
2022-09-14T22:49:04.008Z,1.70
2022-09-14T22:51:32.405Z,2.22
2022-09-14T22:53:59.969Z,1.92
2022-09-14T22:56:31.549Z,2.15
2022-09-14T22:59:00.300Z,2.05
2022-09-14T23:01:30.400Z,2.00
2022-09-14T23:04:01.252Z,2.00
2022-09-14T23:06:29.810Z,2.38
2022-09-14T23:08:57.899Z,2.20
2022-09-14T23:11:25.816Z,2.40
2022-09-14T23:13:54.871Z,2.10
2022-09-14T23:16:26.204Z,2.22
2022-09-14T23:18:59.489Z,2.17
2022-09-14T23:21:27.979Z,1.80
2022-09-14T23:23:57.283Z,2.38
2022-09-14T23:26:25.865Z,1.92
2022-09-14T23:28:56.391Z,2.10
2022-09-14T23:31:24.650Z,2.25
2022-09-14T23:33:53.289Z,2.63
2022-09-14T23:36:22.902Z,1.70
2022-09-14T23:38:50.966Z,1.75
2022-09-14T23:41:20.470Z,2.17
2022-09-14T23:43:48.613Z,1.90
2022-09-14T23:46:17.783Z,1.88
2022-09-14T23:48:45.903Z,1.70
2022-09-14T23:51:14.628Z,1.98
2022-09-14T23:53:43.762Z,1.70
2022-09-14T23:56:11.925Z,2.00
2022-09-14T23:58:41.193Z,1.95
